Time;durP1;ratioP1;P1;durP2;ratioP2;P2;SDS_P1;SDS_P2;PMS_P1;PMS_P2;Temp;Humidity;BMP_temperature;BMP_pressure;BME280_temperature;BME280_humidity;BME280_pressure;Samples;Min_cycle;Max_cycle;Signal;HPM_P1;HPM_P2
2023/08/19 00:00:58;;;;;;;0.00;0.00;;;;;;;22.59;100.00;101194.69;5073992;28;20399;-49
2023/08/19 00:03:24;;;;;;;0.00;0.00;;;;;;;22.62;100.00;101196.94;5073567;28;20501;-46
2023/08/19 00:05:49;;;;;;;0.00;0.00;;;;;;;22.61;100.00;101198.00;5055925;28;20032;-48
2023/08/19 00:08:14;;;;;;;0.00;0.00;;;;;;;22.61;100.00;101197.19;5073683;28;20024;-49
2023/08/19 00:10:40;;;;;;;0.00;0.00;;;;;;;22.62;100.00;101188.72;5073178;28;20020;-46
2023/08/19 00:13:06;;;;;;;0.00;0.00;;;;;;;22.63;100.00;101189.53;5073209;28;20500;-48
2023/08/19 00:15:32;;;;;;;0.00;0.00;;;;;;;22.55;100.00;101193.56;5073621;28;20039;-48
2023/08/19 00:18:00;;;;;;;0.00;0.00;;;;;;;22.55;100.00;101188.06;5055736;28;20028;-49
2023/08/19 00:20:28;;;;;;;0.00;0.00;;;;;;;22.60;100.00;101187.31;5073592;28;20425;-47
2023/08/19 00:22:55;;;;;;;0.00;0.00;;;;;;;22.58;100.00;101182.88;5055459;28;20021;-48
2023/08/19 00:25:20;;;;;;;0.00;0.00;;;;;;;22.53;100.00;101180.06;5078425;28;20033;-47
2023/08/19 00:27:46;;;;;;;0.00;0.00;;;;;;;22.46;100.00;101179.44;5082814;28;20037;-49
2023/08/19 00:30:11;;;;;;;0.00;0.00;;;;;;;22.46;100.00;101182.19;5055302;28;20032;-50
2023/08/19 00:32:37;;;;;;;0.00;0.00;;;;;;;22.51;100.00;101175.94;5072211;28;20037;-50
2023/08/19 00:35:03;;;;;;;0.00;0.00;;;;;;;22.48;100.00;101177.25;5073555;28;20112;-47
2023/08/19 00:37:30;;;;;;;0.00;0.00;;;;;;;22.52;100.00;101172.94;5073286;28;20021;-49
2023/08/19 00:39:56;;;;;;;;;;;;;;;22.52;100.00;101167.47;5073281;28;20024;-47
2023/08/19 00:42:21;;;;;;;0.00;0.00;;;;;;;22.49;100.00;101162.47;5073230;28;19908;-47
2023/08/19 00:44:46;;;;;;;0.00;0.00;;;;;;;22.53;100.00;101158.13;5078281;28;20369;-45
2023/08/19 00:47:12;;;;;;;0.00;0.00;;;;;;;22.52;100.00;101148.25;5080045;28;20069;-46
2023/08/19 00:49:38;;;;;;;0.00;0.00;;;;;;;22.55;100.00;101155.16;5055276;28;20116;-46
2023/08/19 00:52:03;;;;;;;0.00;0.00;;;;;;;22.57;100.00;101147.50;5077977;28;20028;-47
2023/08/19 00:54:29;;;;;;;0.00;0.00;;;;;;;22.64;100.00;101147.28;5055153;28;20040;-46
2023/08/19 00:56:54;;;;;;;0.00;0.00;;;;;;;22.63;100.00;101140.16;5072540;28;20044;-44
2023/08/19 00:59:20;;;;;;;0.00;0.00;;;;;;;22.55;100.00;101139.50;5034088;28;20052;-47
2023/08/19 01:01:46;;;;;;;0.00;0.00;;;;;;;22.60;100.00;101146.16;5052399;28;20138;-46
2023/08/19 01:04:11;;;;;;;0.00;0.00;;;;;;;22.53;100.00;101136.19;5052779;28;20041;-48
2023/08/19 01:06:46;;;;;;;0.00;0.00;;;;;;;22.55;100.00;101144.16;5052176;28;20459;-48
2023/08/19 01:09:20;;;;;;;0.00;0.00;;;;;;;22.49;100.00;101135.06;5051133;28;20581;-47
2023/08/19 01:12:08;;;;;;;0.00;0.00;;;;;;;22.45;100.00;101139.38;5052726;28;20104;-47
2023/08/19 01:15:06;;;;;;;0.00;0.00;;;;;;;22.55;100.00;101139.50;5051245;28;20127;-48
2023/08/19 01:17:32;;;;;;;0.00;0.00;;;;;;;22.51;100.00;101132.03;5052834;28;20425;-47
2023/08/19 01:19:58;;;;;;;0.00;0.00;;;;;;;22.51;100.00;101143.88;5050998;28;20105;-50
2023/08/19 01:22:45;;;;;;;0.00;0.00;;;;;;;22.51;100.00;101134.78;5052149;28;20033;-48
2023/08/19 01:25:10;;;;;;;;;;;;;;;22.56;100.00;101135.69;5053119;28;20112;-49
2023/08/19 01:27:36;;;;;;;0.00;0.00;;;;;;;22.57;100.00;101134.59;5051261;28;19999;-48
2023/08/19 01:30:01;;;;;;;0.00;0.00;;;;;;;22.66;100.00;101128.66;5055975;28;20394;-45
2023/08/19 01:32:27;;;;;;;0.00;0.00;;;;;;;22.63;100.00;101130.00;5051663;28;20403;-49
2023/08/19 01:34:56;;;;;;;0.00;0.00;;;;;;;22.57;100.00;101125.56;5055336;28;20060;-46
2023/08/19 01:38:00;;;;;;;0.00;0.00;;;;;;;22.50;100.00;101131.22;5050638;28;20100;-47
2023/08/19 01:40:27;;;;;;;0.00;0.00;;;;;;;22.47;100.00;101130.91;5053724;28;20079;-51
2023/08/19 01:42:54;;;;;;;0.00;0.00;;;;;;;22.45;100.00;101133.06;5050741;28;20106;-47
2023/08/19 01:45:20;;;;;;;0.00;0.00;;;;;;;22.44;100.00;101134.97;5051990;28;20032;-47
2023/08/19 01:47:45;;;;;;;0.00;0.00;;;;;;;22.47;100.00;101136.38;5051910;28;20095;-47
2023/08/19 01:50:11;;;;;;;0.00;0.00;;;;;;;22.48;100.00;101127.88;5047585;28;20033;-47
2023/08/19 01:52:36;;;;;;;0.00;0.00;;;;;;;22.45;100.00;101127.56;5048430;28;20027;-46
2023/08/19 01:55:02;;;;;;;0.00;0.00;;;;;;;22.44;100.00;101134.16;5051144;28;20040;-47
2023/08/19 01:57:28;;;;;;;0.00;0.00;;;;;;;22.44;100.00;101125.94;5052072;28;20372;-47
2023/08/19 01:59:54;;;;;;;0.00;0.00;;;;;;;22.44;100.00;101121.28;5065915;28;20044;-45
2023/08/19 02:02:20;;;;;;;0.00;0.00;;;;;;;22.44;100.00;101120.44;5075894;28;20085;-47
2023/08/19 02:04:46;;;;;;;0.00;0.00;;;;;;;22.49;100.00;101121.34;5075240;28;20051;-47
2023/08/19 02:07:11;;;;;;;0.00;0.00;;;;;;;22.53;100.00;101107.94;5053967;28;20467;-48
2023/08/19 02:09:38;;;;;;;0.00;0.00;;;;;;;22.49;100.00;101117.78;5071736;28;20064;-46
2023/08/19 02:12:04;;;;;;;0.00;0.00;;;;;;;22.45;100.00;101109.22;5072341;28;20036;-46
2023/08/19 02:14:29;;;;;;;0.00;0.00;;;;;;;22.46;100.00;101108.13;5071699;28;20537;-45
2023/08/19 02:16:54;;;;;;;0.00;0.00;;;;;;;22.53;100.00;101111.50;5071752;28;20039;-46
2023/08/19 02:19:20;;;;;;;0.00;0.00;;;;;;;22.52;100.00;101101.63;5071233;28;20058;-46
2023/08/19 02:21:45;;;;;;;0.00;0.00;;;;;;;22.50;100.00;101102.97;5071567;28;20125;-47
2023/08/19 02:24:10;;;;;;;0.00;0.00;;;;;;;22.51;100.00;101099.13;5071898;28;20040;-47
2023/08/19 02:26:36;;;;;;;0.00;0.00;;;;;;;22.54;100.00;101096.72;5071693;28;20031;-45
2023/08/19 02:29:01;;;;;;;0.00;0.00;;;;;;;22.51;100.00;101093.63;5071360;28;20036;-47
2023/08/19 02:31:26;;;;;;;0.00;0.00;;;;;;;22.48;100.00;101094.97;5071470;28;20025;-48
2023/08/19 02:33:52;;;;;;;0.00;0.00;;;;;;;22.47;100.00;101087.84;5071449;28;20063;-49
2023/08/19 02:36:18;;;;;;;0.00;0.00;;;;;;;22.44;100.00;101088.34;5057394;28;20128;-46
2023/08/19 02:38:43;;;;;;;0.00;0.00;;;;;;;22.39;100.00;101091.03;5063864;28;20560;-48
2023/08/19 02:41:08;;;;;;;0.00;0.00;;;;;;;22.41;100.00;101082.53;5071524;28;20063;-48
2023/08/19 02:43:34;;;;;;;0.00;0.00;;;;;;;22.39;100.00;101084.72;5070763;28;20029;-46
2023/08/19 02:45:59;;;;;;;0.00;0.00;;;;;;;22.46;100.00;101074.38;5073827;28;20032;-47
2023/08/19 02:48:24;;;;;;;0.00;0.00;;;;;;;22.48;100.00;101075.78;5074357;28;20447;-45
2023/08/19 02:50:55;;;;;;;0.00;0.00;;;;;;;22.46;100.00;101069.75;5078241;28;20035;-49
2023/08/19 02:53:21;;;;;;;0.00;0.00;;;;;;;22.42;100.00;101085.03;5076382;28;20490;-48
2023/08/19 02:55:46;;;;;;;0.00;0.00;;;;;;;22.40;100.00;101086.38;5071716;28;20063;-46
2023/08/19 02:58:13;;;;;;;0.00;0.00;;;;;;;22.37;100.00;101082.22;5076564;28;20020;-47
2023/08/19 03:00:39;;;;;;;0.00;0.00;;;;;;;22.35;100.00;101085.25;5077964;28;20032;-45
2023/08/19 03:03:08;;;;;;;0.00;0.00;;;;;;;22.41;100.00;101069.69;5076439;28;20097;-50
2023/08/19 03:05:39;;;;;;;0.00;0.00;;;;;;;22.55;100.00;101057.22;5073068;28;20033;-47
2023/08/19 03:08:05;;;;;;;0.00;0.00;;;;;;;22.61;100.00;101032.59;5095693;28;20035;-47
2023/08/19 03:10:38;;;;;;;0.00;0.00;;;;;;;22.56;100.00;101036.94;5076261;28;20032;-48
2023/08/19 03:13:04;;;;;;;0.00;0.00;;;;;;;;;;5076862;28;20017;-47
2023/08/19 03:15:30;;;;;;;0.00;0.00;;;;;;;22.46;100.00;101023.13;5084070;28;20513;-47
2023/08/19 03:17:56;;;;;;;0.00;0.00;;;;;;;22.44;100.00;101032.69;5080348;28;20386;-47
2023/08/19 03:20:21;;;;;;;0.00;0.00;;;;;;;22.43;100.00;101036.50;5074659;28;20047;-48
2023/08/19 03:22:46;;;;;;;0.00;0.00;;;;;;;22.36;100.00;101058.66;5074891;28;20032;-48
2023/08/19 03:25:12;;;;;;;0.00;0.00;;;;;;;22.32;100.00;101071.19;5073097;28;20033;-48
2023/08/19 03:27:37;;;;;;;0.00;0.00;;;;;;;22.28;100.00;101072.81;5074746;28;20471;-46
2023/08/19 03:30:04;;;;;;;0.00;0.00;;;;;;;22.30;100.00;101076.09;5074556;28;20363;-47
2023/08/19 03:32:30;;;;;;;0.00;0.00;;;;;;;22.25;100.00;101085.09;5074493;28;20043;-47
2023/08/19 03:34:55;;;;;;;0.00;0.00;;;;;;;22.28;100.00;101079.13;5074787;28;20474;-47
2023/08/19 03:37:20;;;;;;;0.00;0.00;;;;;;;22.29;100.00;101080.75;5074783;28;20048;-47
2023/08/19 03:39:46;;;;;;;0.00;0.00;;;;;;;22.28;100.00;101075.53;5074531;28;20024;-48
2023/08/19 03:42:11;;;;;;;0.00;0.00;;;;;;;22.31;100.00;101083.25;5074538;28;20048;-47
2023/08/19 03:44:36;;;;;;;0.00;0.00;;;;;;;22.33;100.00;101083.84;5074352;28;20108;-46
2023/08/19 03:47:02;;;;;;;0.00;0.00;;;;;;;22.33;100.00;101081.09;5076931;28;20065;-50
2023/08/19 03:49:27;;;;;;;0.00;0.00;;;;;;;22.37;100.00;101079.50;5088498;28;20038;-47
2023/08/19 03:51:53;;;;;;;0.00;0.00;;;;;;;22.35;100.00;101087.97;5077453;28;20032;-50
2023/08/19 03:54:18;;;;;;;0.00;0.00;;;;;;;22.38;100.00;101077.56;5074019;28;20709;-47
2023/08/19 03:56:43;;;;;;;0.00;0.00;;;;;;;22.43;100.00;101081.19;5081458;28;20028;-46
2023/08/19 03:59:09;;;;;;;0.00;0.00;;;;;;;22.42;100.00;101073.25;5075855;28;20495;-47
2023/08/19 04:01:34;;;;;;;0.00;0.00;;;;;;;22.41;100.00;101072.44;5074850;28;20020;-47
2023/08/19 04:04:00;;;;;;;0.00;0.00;;;;;;;22.39;100.00;101077.31;5087549;28;20028;-47
2023/08/19 04:06:25;;;;;;;0.00;0.00;;;;;;;22.39;100.00;101071.84;5086805;28;20488;-46
2023/08/19 04:08:50;;;;;;;0.00;0.00;;;;;;;22.40;100.00;101081.72;5078245;28;20111;-50
2023/08/19 04:11:16;;;;;;;0.00;0.00;;;;;;;22.40;100.00;101073.50;5073880;28;20062;-49
2023/08/19 04:13:41;;;;;;;0.00;0.00;;;;;;;22.43;100.00;101066.66;5085331;28;20385;-47
2023/08/19 04:16:07;;;;;;;0.00;0.00;;;;;;;22.42;100.00;101068.59;5093417;28;20471;-45
2023/08/19 04:18:33;;;;;;;0.00;0.00;;;;;;;22.42;100.00;101071.31;5086737;28;20024;-50
2023/08/19 04:21:03;;;;;;;0.00;0.00;;;;;;;22.39;100.00;101074.59;5074665;28;20032;-46
2023/08/19 04:23:29;;;;;;;0.00;0.00;;;;;;;22.41;100.00;101069.69;5074647;28;20281;-46
2023/08/19 04:25:55;;;;;;;0.00;0.00;;;;;;;22.41;100.00;101071.56;5076803;28;20420;-47
2023/08/19 04:28:20;;;;;;;0.00;0.00;;;;;;;22.45;100.00;101073.56;5071795;28;20025;-48
2023/08/19 04:30:46;;;;;;;0.00;0.00;;;;;;;22.46;100.00;101080.72;5044563;28;20035;-48
2023/08/19 04:33:11;;;;;;;0.00;0.00;;;;;;;22.49;100.00;101071.16;5086253;28;20039;-47
2023/08/19 04:35:36;;;;;;;0.00;0.00;;;;;;;22.49;100.00;101068.41;5087958;28;20028;-47
2023/08/19 04:38:03;;;;;;;0.00;0.00;;;;;;;22.47;100.00;101065.91;5056807;28;20040;-49
2023/08/19 04:40:30;;;;;;;0.00;0.00;;;;;;;22.49;100.00;101073.88;5074047;28;20036;-48
2023/08/19 04:42:57;;;;;;;0.00;0.00;;;;;;;22.51;100.00;101064.31;5072664;28;20431;-48
2023/08/19 04:45:22;;;;;;;0.00;0.00;;;;;;;22.53;100.00;101075.03;5070380;28;20143;-46
2023/08/19 04:47:48;;;;;;;0.00;0.00;;;;;;;22.55;100.00;101079.16;5071635;28;20151;-46
2023/08/19 04:50:14;;;;;;;0.00;0.00;;;;;;;22.54;100.00;101072.03;5070980;28;20037;-48
2023/08/19 04:52:39;;;;;;;0.00;0.00;;;;;;;22.56;100.00;101074.50;5071892;28;20420;-49
2023/08/19 04:55:05;;;;;;;0.00;0.00;;;;;;;22.58;100.00;101077.81;5083449;28;20032;-49
2023/08/19 04:57:30;;;;;;;0.00;0.00;;;;;;;22.57;100.00;101081.66;5081706;28;20034;-50
2023/08/19 04:59:56;;;;;;;0.00;0.00;;;;;;;22.55;100.00;101079.16;5054723;28;20062;-50
2023/08/19 05:02:21;;;;;;;0.00;0.00;;;;;;;22.55;100.00;101073.69;5075277;28;20036;-50
2023/08/19 05:04:46;;;;;;;0.00;0.00;;;;;;;22.50;100.00;101086.50;5071536;28;20048;-47
2023/08/19 05:07:12;;;;;;;0.00;0.00;;;;;;;22.47;100.00;101081.53;5080805;28;20067;-48
2023/08/19 05:09:37;;;;;;;0.00;0.00;;;;;;;22.45;100.00;101089.19;5079724;28;20052;-48
2023/08/19 05:12:03;;;;;;;0.00;0.00;;;;;;;22.44;100.00;101098.50;5071217;28;20033;-47
2023/08/19 05:14:28;;;;;;;0.00;0.00;;;;;;;22.49;100.00;101096.66;5071467;28;20036;-49
2023/08/19 05:16:53;;;;;;;0.00;0.00;;;;;;;22.54;100.00;101083.00;5064218;28;20072;-47
2023/08/19 05:19:20;;;;;;;0.00;0.00;;;;;;;22.54;100.00;101080.25;5066233;28;20104;-50
2023/08/19 05:21:48;;;;;;;0.00;0.00;;;;;;;22.48;100.00;101092.22;5064425;28;20036;-49
2023/08/19 05:24:14;;;;;;;0.00;0.00;;;;;;;22.46;100.00;101091.69;5071414;28;20431;-47
2023/08/19 05:26:40;;;;;;;0.00;0.00;;;;;;;22.48;100.00;101096.91;5053184;28;20379;-48
2023/08/19 05:29:05;;;;;;;0.00;0.00;;;;;;;22.46;100.00;101094.44;5070268;28;20025;-47
2023/08/19 05:31:30;;;;;;;0.40;0.00;;;;;;;22.48;100.00;101105.94;5070305;28;20036;-46
2023/08/19 05:33:56;;;;;;;0.00;0.00;;;;;;;22.51;100.00;101115.59;5071126;28;20364;-46
2023/08/19 05:36:21;;;;;;;0.00;0.00;;;;;;;22.49;100.00;101115.84;5069899;28;20024;-48
2023/08/19 05:38:47;;;;;;;0.00;0.00;;;;;;;22.50;100.00;101114.75;5070105;28;20016;-47
2023/08/19 05:41:12;;;;;;;0.00;0.00;;;;;;;22.56;100.00;101119.25;5052491;28;20052;-49
2023/08/19 05:43:37;;;;;;;0.00;0.00;;;;;;;22.64;100.00;101115.19;5071728;28;20021;-47
2023/08/19 05:46:04;;;;;;;0.00;0.00;;;;;;;22.69;100.00;101111.69;5071771;28;20499;-47
2023/08/19 05:48:30;;;;;;;0.00;0.00;;;;;;;22.76;100.00;101115.06;5072462;28;20059;-47
2023/08/19 05:50:55;;;;;;;0.00;0.00;;;;;;;22.79;100.00;101120.03;5071675;28;20090;-46
2023/08/19 05:53:21;;;;;;;0.00;0.00;;;;;;;22.83;100.00;101115.72;5071603;28;20029;-46
2023/08/19 05:55:47;;;;;;;0.00;0.00;;;;;;;22.89;100.00;101122.09;5083186;28;20111;-49
2023/08/19 05:58:13;;;;;;;0.00;0.00;;;;;;;23.01;100.00;101120.03;5071807;28;20050;-49
2023/08/19 06:00:38;;;;;;;0.00;0.00;;;;;;;23.16;100.00;101116.63;5085486;28;20072;-47
2023/08/19 06:03:04;;;;;;;0.00;0.00;;;;;;;23.30;100.00;101123.38;5080508;28;20686;-44
2023/08/19 06:05:29;;;;;;;0.00;0.00;;;;;;;23.33;100.00;101122.00;5071916;28;20036;-48
2023/08/19 06:07:54;;;;;;;0.00;0.00;;;;;;;23.37;100.00;101118.47;5074142;28;20557;-44
2023/08/19 06:10:20;;;;;;;0.00;0.00;;;;;;;23.39;100.00;101115.47;5091412;28;20028;-48
2023/08/19 06:12:45;;;;;;;0.00;0.00;;;;;;;23.37;100.00;101126.72;5080377;28;20030;-47
2023/08/19 06:15:11;;;;;;;0.00;0.00;;;;;;;23.42;100.00;101142.44;5071985;28;20039;-48
2023/08/19 06:17:36;;;;;;;0.00;0.00;;;;;;;23.40;100.00;101133.59;5072972;28;20158;-47
2023/08/19 06:20:02;;;;;;;0.00;0.00;;;;;;;23.40;100.00;101123.44;5054664;28;20089;-46
2023/08/19 06:22:27;;;;;;;0.00;0.00;;;;;;;23.41;100.00;101124.31;5090747;28;20331;-46
2023/08/19 06:24:52;;;;;;;0.00;0.00;;;;;;;23.40;100.00;101139.94;5086022;28;20120;-43
2023/08/19 06:27:18;;;;;;;0.00;0.00;;;;;;;23.42;100.00;101115.78;5072834;28;20032;-47
2023/08/19 06:29:43;;;;;;;0.00;0.00;;;;;;;23.47;100.00;101130.66;5074464;28;20077;-45
2023/08/19 06:32:09;;;;;;;0.00;0.00;;;;;;;23.34;100.00;101138.22;5090932;28;20040;-47
2023/08/19 06:34:35;;;;;;;0.00;0.00;;;;;;;23.26;100.00;101144.19;5073225;28;20048;-47
2023/08/19 06:37:01;;;;;;;0.00;0.00;;;;;;;23.15;100.00;101170.72;5071711;28;20033;-48
2023/08/19 06:39:27;;;;;;;0.00;0.00;;;;;;;23.01;100.00;101158.47;5071656;28;20044;-48
2023/08/19 06:42:02;;;;;;;0.00;0.00;;;;;;;22.99;100.00;101168.91;5071502;28;20025;-50
2023/08/19 06:44:29;;;;;;;0.00;0.00;;;;;;;22.91;100.00;101178.38;5069118;28;20120;-49
2023/08/19 06:46:56;;;;;;;0.00;0.00;;;;;;;22.87;100.00;101179.97;5073075;28;20032;-50
2023/08/19 06:49:22;;;;;;;0.00;0.00;;;;;;;22.90;100.00;101190.44;5071258;28;20354;-48
2023/08/19 06:51:47;;;;;;;0.00;0.00;;;;;;;22.90;100.00;101192.34;5068737;28;20110;-46
2023/08/19 06:54:13;;;;;;;0.00;0.00;;;;;;;22.93;100.00;101211.03;5071247;28;20070;-50
2023/08/19 06:56:50;;;;;;;0.00;0.00;;;;;;;22.95;100.00;101215.19;5068014;28;20035;-49
2023/08/19 06:59:31;;;;;;;0.00;0.00;;;;;;;22.96;100.00;101200.44;5071268;28;20036;-48
2023/08/19 07:02:00;;;;;;;0.00;0.00;;;;;;;23.03;100.00;101192.00;5066132;28;20028;-50
2023/08/19 07:04:27;;;;;;;0.00;0.00;;;;;;;23.11;100.00;101198.94;5070562;28;20203;-48
2023/08/19 07:06:54;;;;;;;0.00;0.00;;;;;;;23.15;100.00;101198.19;5070795;28;20033;-49
2023/08/19 07:09:21;;;;;;;0.00;0.00;;;;;;;23.27;100.00;101214.50;5053233;28;20105;-48
2023/08/19 07:11:47;;;;;;;0.00;0.00;;;;;;;23.37;100.00;101216.53;5054576;28;20032;-50
2023/08/19 07:14:12;;;;;;;0.00;0.00;;;;;;;23.57;100.00;101221.41;5050493;28;20035;-46
2023/08/19 07:16:38;;;;;;;0.00;0.00;;;;;;;23.58;100.00;101204.66;5071974;28;20043;-49
2023/08/19 07:19:09;;;;;;;0.00;0.00;;;;;;;23.52;100.00;101210.38;5070107;28;20044;-47
2023/08/19 07:21:34;;;;;;;0.00;0.00;;;;;;;23.44;100.00;101223.47;5070515;28;20028;-47
2023/08/19 07:24:01;;;;;;;0.00;0.00;;;;;;;23.34;100.00;101228.03;5054080;28;20107;-44
2023/08/19 07:26:27;;;;;;;0.00;0.00;;;;;;;23.28;100.00;101220.84;5071743;28;20016;-45
2023/08/19 07:28:52;;;;;;;0.00;0.00;;;;;;;23.23;100.00;101216.13;5069964;28;20527;-50
2023/08/19 07:31:20;;;;;;;0.00;0.00;;;;;;;23.22;100.00;101225.41;5071067;28;20119;-47
2023/08/19 07:33:46;;;;;;;0.00;0.00;;;;;;;23.17;100.00;101225.34;5070560;28;20507;-48
2023/08/19 07:36:11;;;;;;;0.00;0.00;;;;;;;23.19;100.00;101234.19;5070481;28;20123;-47
2023/08/19 07:38:37;;;;;;;0.00;0.00;;;;;;;23.21;100.00;101234.75;5068448;28;20029;-47
2023/08/19 07:41:03;;;;;;;0.00;0.00;;;;;;;23.22;100.00;101247.38;5070570;28;20036;-48
2023/08/19 07:43:28;;;;;;;0.00;0.00;;;;;;;23.27;100.00;101239.22;5073616;28;20066;-45
2023/08/19 07:45:53;;;;;;;0.00;0.00;;;;;;;23.35;100.00;101241.50;5055825;28;20024;-48
2023/08/19 07:48:19;;;;;;;0.00;0.00;;;;;;;23.47;100.00;101238.63;5073915;28;20024;-48
2023/08/19 07:50:44;;;;;;;0.00;0.00;;;;;;;23.54;100.00;101235.66;5070940;28;20375;-49
2023/08/19 07:53:09;;;;;;;0.00;0.00;;;;;;;23.57;100.00;101244.22;5073870;28;20028;-47
2023/08/19 07:55:35;;;;;;;0.00;0.00;;;;;;;23.53;100.00;101250.50;5073353;28;20032;-47
2023/08/19 07:58:00;;;;;;;0.00;0.00;;;;;;;23.55;100.00;101246.41;5071079;28;20036;-46
2023/08/19 08:00:26;;;;;;;0.00;0.00;;;;;;;23.70;100.00;101253.13;5073337;28;20120;-46
2023/08/19 08:02:51;;;;;;;0.00;0.00;;;;;;;23.81;100.00;101238.44;5055437;28;20273;-48
2023/08/19 08:05:17;;;;;;;0.00;0.00;;;;;;;24.17;100.00;101235.97;5073579;28;20486;-48
2023/08/19 08:07:43;;;;;;;0.00;0.00;;;;;;;24.64;100.00;101238.78;5076503;28;20037;-48
2023/08/19 08:10:08;;;;;;;0.00;0.00;;;;;;;24.93;100.00;101233.72;5073108;28;20048;-51
2023/08/19 08:12:34;;;;;;;0.00;0.00;;;;;;;25.23;100.00;101231.41;5073685;28;20016;-49
2023/08/19 08:14:59;;;;;;;0.00;0.00;;;;;;;25.46;100.00;101233.66;5073115;28;20108;-47
2023/08/19 08:17:25;;;;;;;0.00;0.00;;;;;;;25.70;100.00;101235.88;5073176;28;20044;-48
2023/08/19 08:19:50;;;;;;;0.00;0.00;;;;;;;25.73;100.00;101235.38;5072906;28;20025;-47
2023/08/19 08:22:16;;;;;;;0.00;0.00;;;;;;;26.07;100.00;101235.69;5073289;28;20024;-47
2023/08/19 08:24:42;;;;;;;0.00;0.00;;;;;;;26.25;100.00;101226.00;5073258;28;20024;-47
2023/08/19 08:27:07;;;;;;;0.00;0.00;;;;;;;26.89;100.00;101236.38;5073374;28;20024;-47
2023/08/19 08:29:33;;;;;;;0.00;0.00;;;;;;;27.55;100.00;101229.69;5072732;28;20025;-47
2023/08/19 08:31:58;;;;;;;0.00;0.00;;;;;;;28.22;100.00;101240.25;5073256;28;20036;-47
2023/08/19 08:34:23;;;;;;;0.00;0.00;;;;;;;28.57;100.00;101239.13;5072337;28;20490;-45
2023/08/19 08:36:49;;;;;;;0.00;0.00;;;;;;;28.96;100.00;101238.09;5087994;28;20081;-49
2023/08/19 08:39:14;;;;;;;0.00;0.00;;;;;;;29.32;100.00;101244.03;5092693;28;20597;-51
2023/08/19 08:41:40;;;;;;;0.00;0.00;;;;;;;29.87;100.00;101246.28;5093270;28;20111;-48
2023/08/19 08:44:09;;;;;;;0.00;0.00;;;;;;;30.34;100.00;101249.97;5075442;28;20638;-48
2023/08/19 08:46:35;;;;;;;0.00;0.00;;;;;;;31.24;100.00;101249.56;5064492;28;20032;-45
2023/08/19 08:49:01;;;;;;;0.00;0.00;;;;;;;31.64;100.00;101253.41;5086045;28;20024;-46
2023/08/19 08:51:27;;;;;;;0.00;0.00;;;;;;;31.41;100.00;101260.06;5093225;28;20085;-43
2023/08/19 08:53:52;;;;;;;0.00;0.00;;;;;;;31.37;100.00;101259.03;5071277;28;20040;-48
2023/08/19 08:56:19;;;;;;;0.00;0.00;;;;;;;31.82;100.00;101270.25;5055965;28;20124;-46
2023/08/19 08:58:44;;;;;;;0.00;0.00;;;;;;;32.25;100.00;101278.13;5073074;28;20390;-47
2023/08/19 09:01:10;;;;;;;0.00;0.00;;;;;;;32.47;100.00;101280.06;5072674;28;20025;-49
2023/08/19 09:03:37;;;;;;;0.00;0.00;;;;;;;33.31;100.00;101284.69;5072792;28;20078;-47
2023/08/19 09:06:13;;;;;;;0.00;0.00;;;;;;;33.21;100.00;101285.00;5054629;28;20048;-49
2023/08/19 09:08:42;;;;;;;0.00;0.00;;;;;;;32.68;100.00;101302.66;5067238;28;20093;-50
2023/08/19 09:11:11;;;;;;;0.00;0.00;;;;;;;32.71;100.00;101299.22;5066636;28;20380;-48
2023/08/19 09:13:37;;;;;;;0.00;0.00;;;;;;;31.11;100.00;101306.84;5051341;28;20059;-46
2023/08/19 09:16:03;;;;;;;0.00;0.00;;;;;;;30.22;100.00;101302.31;5068004;28;20052;-47
2023/08/19 09:18:28;;;;;;;0.00;0.00;;;;;;;29.61;100.00;101309.63;5044829;28;20081;-48
2023/08/19 09:20:54;;;;;;;0.00;0.00;;;;;;;29.80;100.00;101312.44;5042963;28;20124;-49
2023/08/19 09:23:20;;;;;;;0.00;0.00;;;;;;;30.27;100.00;101320.88;5068949;28;20409;-47
2023/08/19 09:25:46;;;;;;;0.00;0.00;;;;;;;30.42;100.00;101328.16;5072551;28;20031;-47
2023/08/19 09:28:20;;;;;;;0.00;0.00;;;;;;;30.42;100.00;101328.97;5057754;28;20111;-46
2023/08/19 09:30:45;;;;;;;0.00;0.00;;;;;;;30.51;100.00;101326.31;5066989;28;20149;-49
2023/08/19 09:33:18;;;;;;;0.00;0.00;;;;;;;30.63;100.00;101340.53;5069148;28;20143;-47
2023/08/19 09:35:43;;;;;;;0.00;0.00;;;;;;;30.66;100.00;101342.72;5068246;28;20064;-47
2023/08/19 09:38:18;;;;;;;0.00;0.00;;;;;;;30.96;100.00;101355.22;5049068;28;20169;-49
2023/08/19 09:40:44;;;;;;;0.00;0.00;;;;;;;30.62;100.00;101356.38;5065849;28;20088;-45
2023/08/19 09:43:09;;;;;;;0.00;0.00;;;;;;;30.21;100.00;101350.66;5065638;28;20439;-47
2023/08/19 09:45:35;;;;;;;0.00;0.00;;;;;;;29.95;100.00;101345.50;5049683;28;20025;-47
2023/08/19 09:48:00;;;;;;;0.00;0.00;;;;;;;29.92;100.00;101346.09;5065997;28;20081;-48
2023/08/19 09:50:27;;;;;;;0.00;0.00;;;;;;;29.81;100.00;101354.91;5075141;28;20569;-44
2023/08/19 09:52:56;;;;;;;;;;;;;;;29.86;100.00;101354.78;5071269;28;20321;-44
2023/08/19 09:55:34;;;;;;;0.00;0.00;;;;;;;30.44;100.00;101371.16;5060998;28;19908;-44
2023/08/19 09:57:59;;;;;;;0.00;0.00;;;;;;;30.89;100.00;101365.13;5063591;28;20131;-45
2023/08/19 10:00:25;;;;;;;0.00;0.00;;;;;;;30.93;100.00;101361.41;5068113;28;20040;-45
2023/08/19 10:02:50;;;;;;;0.00;0.00;;;;;;;30.25;100.00;101353.69;5061500;28;20159;-46
2023/08/19 10:05:16;;;;;;;0.00;0.00;;;;;;;29.58;100.00;101381.53;5062420;28;20119;-45
2023/08/19 10:07:47;;;;;;;0.00;0.00;;;;;;;28.76;100.00;101379.63;5066026;28;20036;-44
2023/08/19 10:10:13;;;;;;;0.00;0.00;;;;;;;27.64;100.00;101373.69;5068255;28;20048;-45
2023/08/19 10:12:40;;;;;;;0.00;0.00;;;;;;;27.25;100.00;101370.81;5067649;28;20161;-45
2023/08/19 10:15:08;;;;;;;0.00;0.00;;;;;;;26.55;100.00;101385.25;5067581;28;20021;-46
2023/08/19 10:17:36;;;;;;;0.00;0.00;;;;;;;26.20;100.00;101397.91;5050624;28;20128;-46
2023/08/19 10:20:09;;;;;;;0.00;0.00;;;;;;;26.03;100.00;101384.34;5051011;28;20028;-45
2023/08/19 10:22:36;;;;;;;0.00;0.00;;;;;;;26.11;100.00;101390.44;5065978;28;20445;-49
2023/08/19 10:25:04;;;;;;;0.00;0.00;;;;;;;26.25;100.00;101397.06;5049627;28;20036;-45
2023/08/19 10:27:29;;;;;;;0.00;0.00;;;;;;;26.49;100.00;101412.00;5050521;28;20043;-46
2023/08/19 10:29:56;;;;;;;0.00;0.00;;;;;;;26.78;100.00;101411.50;5069725;28;20467;-42
2023/08/19 10:32:29;;;;;;;0.00;0.00;;;;;;;27.00;100.00;101426.94;5069950;28;20056;-47
2023/08/19 10:35:04;;;;;;;0.00;0.00;;;;;;;27.19;100.00;101419.75;5070088;28;20532;-47
2023/08/19 10:37:30;;;;;;;0.00;0.00;;;;;;;27.05;100.00;101422.22;5069632;28;20025;-46
2023/08/19 10:40:11;;;;;;;0.00;0.00;;;;;;;26.98;100.00;101404.28;5071099;28;20398;-45
2023/08/19 10:42:36;;;;;;;0.00;0.00;;;;;;;26.76;100.00;101402.66;5073326;28;20538;-44
2023/08/19 10:45:03;;;;;;;0.00;0.00;;;;;;;26.74;100.00;101417.84;5072804;28;20025;-44
2023/08/19 10:47:29;;;;;;;0.00;0.00;;;;;;;26.58;100.00;101417.00;5053874;28;20024;-46
2023/08/19 10:50:01;;;;;;;0.00;0.00;;;;;;;26.42;100.00;101413.38;5017886;28;20457;-46
2023/08/19 10:52:26;;;;;;;0.00;0.00;;;;;;;26.42;100.00;101413.38;5050730;28;20124;-43
2023/08/19 10:54:53;;;;;;;0.00;0.00;;;;;;;26.35;100.00;101435.72;5050264;28;20096;-44
2023/08/19 10:57:24;;;;;;;0.00;0.00;;;;;;;26.22;100.00;101439.81;5050549;28;20118;-45
2023/08/19 10:59:59;;;;;;;0.00;0.00;;;;;;;26.00;100.00;101440.06;5050000;28;20517;-46
2023/08/19 11:02:29;;;;;;;0.00;0.00;;;;;;;25.37;100.00;101441.94;5050059;28;20036;-44
2023/08/19 11:04:55;;;;;;;0.00;0.00;;;;;;;25.36;100.00;101454.06;5050183;28;20029;-48
2023/08/19 11:07:21;;;;;;;0.00;0.00;;;;;;;25.04;100.00;101476.97;5049720;28;20032;-44
2023/08/19 11:09:50;;;;;;;0.00;0.00;;;;;;;24.60;100.00;101488.13;5049973;28;20025;-43
2023/08/19 11:12:20;;;;;;;0.00;0.00;;;;;;;24.15;100.00;101505.75;5049784;28;20025;-45
2023/08/19 11:14:50;;;;;;;0.00;0.00;;;;;;;23.82;100.00;101510.28;5050129;28;20606;-47
2023/08/19 11:17:16;;;;;;;0.00;0.00;;;;;;;23.81;100.00;101505.88;5051064;28;20079;-46